sensor_id;sensor_type;location;lat;lon;timestamp;pressure;altitude;pressure_sealevel;temperature;humidity
38054;BME280;23859;50.672;7.164;2023-04-25T00:00:51;59079.72;;;9.47;98.15
38054;BME280;23859;50.672;7.164;2023-04-25T00:03:18;59067.09;;;9.39;97.76
38054;BME280;23859;50.672;7.164;2023-04-25T00:05:44;59065.47;;;9.40;98.22
38054;BME280;23859;50.672;7.164;2023-04-25T00:08:11;59069.06;;;9.33;98.74
38054;BME280;23859;50.672;7.164;2023-04-25T00:10:37;59061.19;;;9.33;97.70
38054;BME280;23859;50.672;7.164;2023-04-25T00:13:03;59061.72;;;9.26;97.15
38054;BME280;23859;50.672;7.164;2023-04-25T00:15:29;59051.06;;;9.21;99.94
38054;BME280;23859;50.672;7.164;2023-04-25T00:17:58;59045.50;;;9.10;97.57
38054;BME280;23859;50.672;7.164;2023-04-25T00:20:25;59026.19;;;8.93;98.22
38054;BME280;23859;50.672;7.164;2023-04-25T00:22:51;59009.84;;;8.79;99.75
38054;BME280;23859;50.672;7.164;2023-04-25T00:25:19;59005.09;;;8.71;98.90
38054;BME280;23859;50.672;7.164;2023-04-25T00:27:45;58985.28;;;8.62;100.00
38054;BME280;23859;50.672;7.164;2023-04-25T00:30:11;58996.75;;;8.55;100.00
38054;BME280;23859;50.672;7.164;2023-04-25T00:32:38;58979.56;;;8.46;100.00
38054;BME280;23859;50.672;7.164;2023-04-25T00:35:04;58972.19;;;8.38;100.00
38054;BME280;23859;50.672;7.164;2023-04-25T00:37:30;58966.81;;;8.33;100.00
38054;BME280;23859;50.672;7.164;2023-04-25T00:39:58;58957.00;;;8.23;100.00
38054;BME280;23859;50.672;7.164;2023-04-25T00:42:25;58959.63;;;8.23;100.00
38054;BME280;23859;50.672;7.164;2023-04-25T00:44:52;58962.06;;;8.25;100.00
38054;BME280;23859;50.672;7.164;2023-04-25T00:47:18;58945.72;;;8.19;100.00
38054;BME280;23859;50.672;7.164;2023-04-25T00:49:44;58951.94;;;8.20;100.00
38054;BME280;23859;50.672;7.164;2023-04-25T00:52:11;58951.44;;;8.20;100.00
38054;BME280;23859;50.672;7.164;2023-04-25T00:54:37;58950.44;;;8.11;100.00
38054;BME280;23859;50.672;7.164;2023-04-25T00:57:03;58934.25;;;8.02;100.00
38054;BME280;23859;50.672;7.164;2023-04-25T00:59:29;58933.75;;;7.94;100.00
38054;BME280;23859;50.672;7.164;2023-04-25T01:01:56;58922.97;;;7.91;100.00
38054;BME280;23859;50.672;7.164;2023-04-25T01:04:22;58865.28;;;7.30;100.00
38054;BME280;23859;50.672;7.164;2023-04-25T01:06:49;58910.88;;;7.76;100.00
38054;BME280;23859;50.672;7.164;2023-04-25T01:09:15;58915.94;;;7.79;100.00
38054;BME280;23859;50.672;7.164;2023-04-25T01:11:41;58894.69;;;7.68;100.00
38054;BME280;23859;50.672;7.164;2023-04-25T01:14:07;58908.09;;;7.71;100.00
38054;BME280;23859;50.672;7.164;2023-04-25T01:16:34;58913.66;;;7.74;100.00
38054;BME280;23859;50.672;7.164;2023-04-25T01:19:00;58908.09;;;7.71;100.00
38054;BME280;23859;50.672;7.164;2023-04-25T01:21:26;58891.09;;;7.59;100.00
38054;BME280;23859;50.672;7.164;2023-04-25T01:23:55;58884.88;;;7.50;100.00
38054;BME280;23859;50.672;7.164;2023-04-25T01:26:21;58887.50;;;7.58;100.00
38054;BME280;23859;50.672;7.164;2023-04-25T01:28:48;58899.94;;;7.60;100.00
38054;BME280;23859;50.672;7.164;2023-04-25T01:31:15;58884.38;;;7.49;100.00
38054;BME280;23859;50.672;7.164;2023-04-25T01:33:42;58881.59;;;7.52;100.00
38054;BME280;23859;50.672;7.164;2023-04-25T01:36:08;58883.91;;;7.49;100.00
38054;BME280;23859;50.672;7.164;2023-04-25T01:38:35;58873.28;;;7.43;100.00
38054;BME280;23859;50.672;7.164;2023-04-25T01:41:01;58871.16;;;7.36;100.00
38054;BME280;23859;50.672;7.164;2023-04-25T01:43:27;58871.81;;;7.34;100.00
38054;BME280;23859;50.672;7.164;2023-04-25T01:45:53;58873.47;;;7.33;100.00
38054;BME280;23859;50.672;7.164;2023-04-25T01:48:20;58865.28;;;7.30;100.00
38054;BME280;23859;50.672;7.164;2023-04-25T01:50:46;58866.75;;;7.31;100.00
38054;BME280;23859;50.672;7.164;2023-04-25T01:53:13;58864.97;;;7.35;100.00
38054;BME280;23859;50.672;7.164;2023-04-25T01:55:40;58871.16;;;7.36;100.00
38054;BME280;23859;50.672;7.164;2023-04-25T01:58:06;58876.06;;;7.41;100.00
38054;BME280;23859;50.672;7.164;2023-04-25T02:00:38;58871.81;;;7.34;100.00
38054;BME280;23859;50.672;7.164;2023-04-25T02:03:05;58859.06;;;7.29;100.00
38054;BME280;23859;50.672;7.164;2023-04-25T02:05:38;58860.53;;;7.30;100.00
38054;BME280;23859;50.672;7.164;2023-04-25T02:08:06;58872.47;;;7.32;100.00
38054;BME280;23859;50.672;7.164;2023-04-25T02:10:33;58858.44;;;7.23;100.00
38054;BME280;23859;50.672;7.164;2023-04-25T02:12:59;58853.69;;;7.24;100.00
38054;BME280;23859;50.672;7.164;2023-04-25T02:15:25;58862.66;;;7.22;100.00
38054;BME280;23859;50.672;7.164;2023-04-25T02:17:51;58849.59;;;7.22;100.00
38054;BME280;23859;50.672;7.164;2023-04-25T02:20:24;58848.63;;;7.13;100.00
38054;BME280;23859;50.672;7.164;2023-04-25T02:22:50;58845.19;;;7.10;100.00
38054;BME280;23859;50.672;7.164;2023-04-25T02:25:17;58827.72;;;7.05;100.00
38054;BME280;23859;50.672;7.164;2023-04-25T02:27:45;58834.09;;;7.04;100.00
38054;BME280;23859;50.672;7.164;2023-04-25T02:30:12;58832.63;;;6.94;100.00
38054;BME280;23859;50.672;7.164;2023-04-25T02:32:39;58821.19;;;6.85;100.00
38054;BME280;23859;50.672;7.164;2023-04-25T02:35:05;58814.81;;;6.79;100.00
38054;BME280;23859;50.672;7.164;2023-04-25T02:37:33;58816.28;;;6.80;100.00
38054;BME280;23859;50.672;7.164;2023-04-25T02:40:00;58815.00;;;6.76;100.00
38054;BME280;23859;50.672;7.164;2023-04-25T02:42:27;58807.63;;;6.77;100.00
38054;BME280;23859;50.672;7.164;2023-04-25T02:44:53;58811.41;;;6.75;100.00
38054;BME280;23859;50.672;7.164;2023-04-25T02:47:19;58820.69;;;6.85;100.00
38054;BME280;23859;50.672;7.164;2023-04-25T02:49:45;58814.00;;;6.83;100.00
38054;BME280;23859;50.672;7.164;2023-04-25T02:52:12;58818.56;;;6.85;100.00
38054;BME280;23859;50.672;7.164;2023-04-25T02:54:39;58820.03;;;6.87;100.00
38054;BME280;23859;50.672;7.164;2023-04-25T02:57:06;58829.53;;;6.94;100.00
38054;BME280;23859;50.672;7.164;2023-04-25T02:59:32;58830.34;;;6.97;100.00
38054;BME280;23859;50.672;7.164;2023-04-25T03:01:58;58832.44;;;6.97;100.00
38054;BME280;23859;50.672;7.164;2023-04-25T03:04:24;58829.34;;;6.96;100.00
38054;BME280;23859;50.672;7.164;2023-04-25T03:06:51;58828.06;;;6.92;100.00
38054;BME280;23859;50.672;7.164;2023-04-25T03:09:17;58817.59;;;6.92;100.00
38054;BME280;23859;50.672;7.164;2023-04-25T03:11:44;58832.28;;;6.91;100.00
38054;BME280;23859;50.672;7.164;2023-04-25T03:14:11;58826.09;;;6.90;100.00
38054;BME280;23859;50.672;7.164;2023-04-25T03:16:38;58828.53;;;6.93;100.00
38054;BME280;23859;50.672;7.164;2023-04-25T03:19:04;58827.22;;;6.97;100.00
38054;BME280;23859;50.672;7.164;2023-04-25T03:21:32;58828.84;;;6.96;100.00
38054;BME280;23859;50.672;7.164;2023-04-25T03:24:00;58841.09;;;7.00;100.00
38054;BME280;23859;50.672;7.164;2023-04-25T03:26:26;58830.97;;;6.95;100.00
38054;BME280;23859;50.672;7.164;2023-04-25T03:28:52;58820.22;;;6.92;100.00
38054;BME280;23859;50.672;7.164;2023-04-25T03:31:18;58826.56;;;6.91;100.00
38054;BME280;23859;50.672;7.164;2023-04-25T03:33:44;58831.97;;;6.96;100.00
38054;BME280;23859;50.672;7.164;2023-04-25T03:36:10;58824.47;;;6.91;100.00
38054;BME280;23859;50.672;7.164;2023-04-25T03:38:36;58826.72;;;6.88;100.00
38054;BME280;23859;50.672;7.164;2023-04-25T03:41:02;58821.50;;;6.88;100.00
38054;BME280;23859;50.672;7.164;2023-04-25T03:43:28;58821.34;;;6.83;100.00
38054;BME280;23859;50.672;7.164;2023-04-25T03:45:54;58811.88;;;6.76;100.00
38054;BME280;23859;50.672;7.164;2023-04-25T03:48:21;58812.03;;;6.73;100.00
38054;BME280;23859;50.672;7.164;2023-04-25T03:50:48;58815.31;;;6.79;100.00
38054;BME280;23859;50.672;7.164;2023-04-25T03:53:14;58819.72;;;6.84;100.00
38054;BME280;23859;50.672;7.164;2023-04-25T03:55:40;58826.09;;;6.90;100.00
38054;BME280;23859;50.672;7.164;2023-04-25T03:58:06;58832.28;;;6.91;100.00
38054;BME280;23859;50.672;7.164;2023-04-25T04:00:34;58835.88;;;7.00;100.00
38054;BME280;23859;50.672;7.164;2023-04-25T04:03:00;58839.47;;;7.01;100.00
38054;BME280;23859;50.672;7.164;2023-04-25T04:05:26;58841.13;;;7.08;100.00
38054;BME280;23859;50.672;7.164;2023-04-25T04:07:53;58847.31;;;7.17;100.00
38054;BME280;23859;50.672;7.164;2023-04-25T04:10:19;58862.50;;;7.25;100.00
38054;BME280;23859;50.672;7.164;2023-04-25T04:12:45;58863.31;;;7.28;100.00
38054;BME280;23859;50.672;7.164;2023-04-25T04:15:12;58881.94;;;7.47;100.00
38054;BME280;23859;50.672;7.164;2023-04-25T04:17:38;58892.06;;;7.52;100.00
38054;BME280;23859;50.672;7.164;2023-04-25T04:20:05;58902.88;;;7.71;100.00
38054;BME280;23859;50.672;7.164;2023-04-25T04:22:31;58904.66;;;7.67;100.00
38054;BME280;23859;50.672;7.164;2023-04-25T04:24:57;58902.53;;;7.68;100.00
38054;BME280;23859;50.672;7.164;2023-04-25T04:27:24;58899.91;;;7.76;100.00
38054;BME280;23859;50.672;7.164;2023-04-25T04:29:50;58931.16;;;7.94;100.00
38054;BME280;23859;50.672;7.164;2023-04-25T04:32:18;58945.03;;;8.13;98.73
38054;BME280;23859;50.672;7.164;2023-04-25T04:34:44;58944.41;;;8.15;98.40
38054;BME280;23859;50.672;7.164;2023-04-25T04:37:10;58942.09;;;8.10;99.21
38054;BME280;23859;50.672;7.164;2023-04-25T04:39:39;58956.00;;;8.22;98.42
38054;BME280;23859;50.672;7.164;2023-04-25T04:42:05;58957.47;;;8.23;96.82
38054;BME280;23859;50.672;7.164;2023-04-25T04:44:31;58950.94;;;8.11;98.17
38054;BME280;23859;50.672;7.164;2023-04-25T04:47:01;58959.13;;;8.22;98.28
38054;BME280;23859;50.672;7.164;2023-04-25T04:49:27;58957.97;;;8.24;97.87
38054;BME280;23859;50.672;7.164;2023-04-25T04:51:53;58948.97;;;8.09;97.61
38054;BME280;23859;50.672;7.164;2023-04-25T04:54:20;58949.66;;;8.15;97.99
38054;BME280;23859;50.672;7.164;2023-04-25T04:56:46;58931.63;;;8.02;100.00
38054;BME280;23859;50.672;7.164;2023-04-25T04:59:12;58937.84;;;8.03;99.39
38054;BME280;23859;50.672;7.164;2023-04-25T05:01:38;58929.19;;;8.00;100.00
38054;BME280;23859;50.672;7.164;2023-04-25T05:04:05;58927.72;;;7.98;100.00
38054;BME280;23859;50.672;7.164;2023-04-25T05:06:31;58930.00;;;7.95;100.00
38054;BME280;23859;50.672;7.164;2023-04-25T05:08:57;58940.13;;;8.00;100.00
38054;BME280;23859;50.672;7.164;2023-04-25T05:11:24;58918.38;;;7.89;100.00
38054;BME280;23859;50.672;7.164;2023-04-25T05:13:52;58852.53;;;7.17;100.00
38054;BME280;23859;50.672;7.164;2023-04-25T05:16:19;58943.06;;;8.11;100.00
38054;BME280;23859;50.672;7.164;2023-04-25T05:18:46;58959.63;;;8.23;100.00
38054;BME280;23859;50.672;7.164;2023-04-25T05:21:12;58964.66;;;8.33;100.00
38054;BME280;23859;50.672;7.164;2023-04-25T05:23:38;58978.75;;;8.42;99.25
38054;BME280;23859;50.672;7.164;2023-04-25T05:26:05;58986.25;;;8.55;99.18
38054;BME280;23859;50.672;7.164;2023-04-25T05:28:31;58987.09;;;8.59;98.10
38054;BME280;23859;50.672;7.164;2023-04-25T05:30:57;59002.94;;;8.72;97.48
38054;BME280;23859;50.672;7.164;2023-04-25T05:33:23;58996.56;;;8.65;98.56
38054;BME280;23859;50.672;7.164;2023-04-25T05:35:49;59003.13;;;8.69;98.04
38054;BME280;23859;50.672;7.164;2023-04-25T05:38:16;59010.47;;;8.77;98.66
38054;BME280;23859;50.672;7.164;2023-04-25T05:40:42;59007.03;;;8.73;97.16
38054;BME280;23859;50.672;7.164;2023-04-25T05:43:08;59006.53;;;8.81;96.95
38054;BME280;23859;50.672;7.164;2023-04-25T05:45:34;59031.28;;;8.95;94.85
38054;BME280;23859;50.672;7.164;2023-04-25T05:48:00;59018.97;;;8.91;95.97
38054;BME280;23859;50.672;7.164;2023-04-25T05:50:26;59025.53;;;8.95;95.23
38054;BME280;23859;50.672;7.164;2023-04-25T05:52:53;59041.91;;;9.09;94.43
38054;BME280;23859;50.672;7.164;2023-04-25T05:55:19;59056.63;;;9.24;93.97
38054;BME280;23859;50.672;7.164;2023-04-25T05:57:45;59054.50;;;9.24;94.99
38054;BME280;23859;50.672;7.164;2023-04-25T06:00:13;59070.88;;;9.38;93.72
38054;BME280;23859;50.672;7.164;2023-04-25T06:02:41;59076.94;;;9.49;93.75
38054;BME280;23859;50.672;7.164;2023-04-25T06:05:08;59088.72;;;9.61;93.39
38054;BME280;23859;50.672;7.164;2023-04-25T06:07:34;59108.22;;;9.76;92.83
38054;BME280;23859;50.672;7.164;2023-04-25T06:10:00;59125.41;;;9.93;92.04
38054;BME280;23859;50.672;7.164;2023-04-25T06:12:26;59123.47;;;9.91;92.01
38054;BME280;23859;50.672;7.164;2023-04-25T06:14:52;59153.28;;;10.24;89.36
38054;BME280;23859;50.672;7.164;2023-04-25T06:17:18;59155.94;;;10.24;89.50
38054;BME280;23859;50.672;7.164;2023-04-25T06:19:44;59164.13;;;10.35;87.98
38054;BME280;23859;50.672;7.164;2023-04-25T06:22:10;59163.28;;;10.31;87.42
38054;BME280;23859;50.672;7.164;2023-04-25T06:24:36;59160.34;;;10.28;88.15
38054;BME280;23859;50.672;7.164;2023-04-25T06:27:02;59166.75;;;10.35;87.81
38054;BME280;23859;50.672;7.164;2023-04-25T06:29:28;59171.16;;;10.39;86.14
38054;BME280;23859;50.672;7.164;2023-04-25T06:31:55;59161.31;;;10.29;83.99
38054;BME280;23859;50.672;7.164;2023-04-25T06:34:21;59133.31;;;10.01;87.06
38054;BME280;23859;50.672;7.164;2023-04-25T06:36:47;59136.25;;;10.04;88.37
38054;BME280;23859;50.672;7.164;2023-04-25T06:39:13;59131.97;;;10.05;88.38
38054;BME280;23859;50.672;7.164;2023-04-25T06:41:39;59150.03;;;10.18;86.41
38054;BME280;23859;50.672;7.164;2023-04-25T06:44:05;59121.16;;;9.94;87.67
38054;BME280;23859;50.672;7.164;2023-04-25T06:46:31;59101.34;;;9.69;88.74
38054;BME280;23859;50.672;7.164;2023-04-25T06:48:57;59100.84;;;9.68;89.47
38054;BME280;23859;50.672;7.164;2023-04-25T06:51:23;59091.66;;;9.64;89.20
38054;BME280;23859;50.672;7.164;2023-04-25T06:53:50;59121.47;;;9.89;86.38
38054;BME280;23859;50.672;7.164;2023-04-25T06:56:16;59124.94;;;9.93;88.15
38054;BME280;23859;50.672;7.164;2023-04-25T06:58:42;59132.66;;;10.03;88.51
38054;BME280;23859;50.672;7.164;2023-04-25T07:01:08;59124.78;;;10.03;87.79
38054;BME280;23859;50.672;7.164;2023-04-25T07:03:34;59148.06;;;10.08;87.96
38054;BME280;23859;50.672;7.164;2023-04-25T07:06:00;59169.34;;;10.43;85.78
38054;BME280;23859;50.672;7.164;2023-04-25T07:08:27;59207.53;;;10.76;85.81
38054;BME280;23859;50.672;7.164;2023-04-25T07:10:54;59240.53;;;11.09;82.84
38054;BME280;23859;50.672;7.164;2023-04-25T07:13:20;59256.09;;;11.27;78.51
38054;BME280;23859;50.672;7.164;2023-04-25T07:15:46;59270.53;;;11.39;80.05
38054;BME280;23859;50.672;7.164;2023-04-25T07:18:14;59307.50;;;11.77;77.78
38054;BME280;23859;50.672;7.164;2023-04-25T07:20:40;59378.91;;;12.49;74.34
38054;BME280;23859;50.672;7.164;2023-04-25T07:23:06;59529.00;;;14.05;69.08
38054;BME280;23859;50.672;7.164;2023-04-25T07:25:32;59564.94;;;14.36;65.65
38054;BME280;23859;50.672;7.164;2023-04-25T07:27:58;59504.34;;;13.80;67.07
38054;BME280;23859;50.672;7.164;2023-04-25T07:30:24;59462.41;;;13.38;68.26
38054;BME280;23859;50.672;7.164;2023-04-25T07:32:50;59413.91;;;12.92;68.49
38054;BME280;23859;50.672;7.164;2023-04-25T07:35:17;59390.06;;;12.62;70.17
38054;BME280;23859;50.672;7.164;2023-04-25T07:37:43;59332.75;;;12.07;71.86
38054;BME280;23859;50.672;7.164;2023-04-25T07:40:09;59339.16;;;12.14;73.02
38054;BME280;23859;50.672;7.164;2023-04-25T07:42:35;59341.13;;;12.16;72.39
38054;BME280;23859;50.672;7.164;2023-04-25T07:45:02;59346.56;;;12.21;71.89
38054;BME280;23859;50.672;7.164;2023-04-25T07:47:29;59341.94;;;12.19;72.43
38054;BME280;23859;50.672;7.164;2023-04-25T07:49:55;59349.19;;;12.21;72.68
38054;BME280;23859;50.672;7.164;2023-04-25T07:52:22;59275.94;;;11.53;75.22
38054;BME280;23859;50.672;7.164;2023-04-25T07:54:48;59266.75;;;11.41;76.40
38054;BME280;23859;50.672;7.164;2023-04-25T07:57:14;59269.56;;;11.38;73.97
38054;BME280;23859;50.672;7.164;2023-04-25T07:59:40;59257.25;;;11.26;77.34
38054;BME280;23859;50.672;7.164;2023-04-25T08:02:06;59258.22;;;11.27;76.00
38054;BME280;23859;50.672;7.164;2023-04-25T08:04:32;59232.00;;;11.03;76.75
38054;BME280;23859;50.672;7.164;2023-04-25T08:06:58;59261.19;;;11.30;75.88
38054;BME280;23859;50.672;7.164;2023-04-25T08:09:24;59306.84;;;11.79;71.02
38054;BME280;23859;50.672;7.164;2023-04-25T08:11:50;59360.69;;;12.30;67.21
38054;BME280;23859;50.672;7.164;2023-04-25T08:14:17;59402.41;;;12.75;65.74
38054;BME280;23859;50.672;7.164;2023-04-25T08:16:43;59425.28;;;12.95;64.31
38054;BME280;23859;50.672;7.164;2023-04-25T08:19:09;59439.56;;;13.18;62.16
38054;BME280;23859;50.672;7.164;2023-04-25T08:21:36;59415.91;;;12.86;63.22
38054;BME280;23859;50.672;7.164;2023-04-25T08:24:02;59412.94;;;12.83;62.32
38054;BME280;23859;50.672;7.164;2023-04-25T08:26:29;59402.72;;;12.78;62.79
38054;BME280;23859;50.672;7.164;2023-04-25T08:28:55;59397.66;;;12.67;61.53
38054;BME280;23859;50.672;7.164;2023-04-25T08:31:21;59355.41;;;12.30;65.67
38054;BME280;23859;50.672;7.164;2023-04-25T08:33:47;59370.19;;;12.45;65.54
38054;BME280;23859;50.672;7.164;2023-04-25T08:36:13;59410.97;;;12.81;63.71
38054;BME280;23859;50.672;7.164;2023-04-25T08:38:40;59399.09;;;12.77;63.58
38054;BME280;23859;50.672;7.164;2023-04-25T08:41:07;59373.81;;;12.46;61.71
38054;BME280;23859;50.672;7.164;2023-04-25T08:43:34;59328.81;;;12.03;64.58
38054;BME280;23859;50.672;7.164;2023-04-25T08:46:01;59326.84;;;12.01;64.38
38054;BME280;23859;50.672;7.164;2023-04-25T08:48:28;59298.28;;;11.73;66.80
38054;BME280;23859;50.672;7.164;2023-04-25T08:50:55;59280.56;;;11.47;65.35
38054;BME280;23859;50.672;7.164;2023-04-25T08:53:32;59270.88;;;11.42;66.69
38054;BME280;23859;50.672;7.164;2023-04-25T08:56:00;59272.03;;;11.41;66.21
38054;BME280;23859;50.672;7.164;2023-04-25T08:58:28;59272.38;;;11.36;65.58
38054;BME280;23859;50.672;7.164;2023-04-25T09:00:54;59268.06;;;11.37;64.59
38054;BME280;23859;50.672;7.164;2023-04-25T09:03:20;59248.91;;;11.18;65.92
38054;BME280;23859;50.672;7.164;2023-04-25T09:05:47;59241.16;;;11.15;67.77
38054;BME280;23859;50.672;7.164;2023-04-25T09:08:13;59242.47;;;11.11;68.04
38054;BME280;23859;50.672;7.164;2023-04-25T09:10:39;59236.56;;;11.13;68.34
38054;BME280;23859;50.672;7.164;2023-04-25T09:13:10;59232.28;;;11.06;68.41
38054;BME280;23859;50.672;7.164;2023-04-25T09:15:51;59180.66;;;10.54;67.72
38054;BME280;23859;50.672;7.164;2023-04-25T09:18:27;59315.19;;;11.87;66.54
38054;BME280;23859;50.672;7.164;2023-04-25T09:21:04;59361.03;;;12.25;61.87
38054;BME280;23859;50.672;7.164;2023-04-25T09:23:31;59402.72;;;12.78;61.74
38054;BME280;23859;50.672;7.164;2023-04-25T09:26:04;59493.00;;;13.69;58.84
38054;BME280;23859;50.672;7.164;2023-04-25T09:28:32;59602.13;;;14.78;53.95
38054;BME280;23859;50.672;7.164;2023-04-25T09:30:58;59697.03;;;15.74;50.45
38054;BME280;23859;50.672;7.164;2023-04-25T09:33:29;59775.91;;;16.50;48.34
38054;BME280;23859;50.672;7.164;2023-04-25T09:36:02;59699.50;;;15.76;47.29
38054;BME280;23859;50.672;7.164;2023-04-25T09:38:39;59636.06;;;15.07;46.26
38054;BME280;23859;50.672;7.164;2023-04-25T09:41:06;59595.22;;;14.71;47.95
38054;BME280;23859;50.672;7.164;2023-04-25T09:43:33;59620.59;;;14.94;48.46
38054;BME280;23859;50.672;7.164;2023-04-25T09:45:59;59641.66;;;15.18;48.23
38054;BME280;23859;50.672;7.164;2023-04-25T09:48:27;59655.50;;;15.32;46.72
38054;BME280;23859;50.672;7.164;2023-04-25T09:51:11;59641.81;;;15.16;47.21
38054;BME280;23859;50.672;7.164;2023-04-25T09:53:42;59599.47;;;14.78;49.32
38054;BME280;23859;50.672;7.164;2023-04-25T09:56:10;59564.25;;;14.38;49.44
38054;BME280;23859;50.672;7.164;2023-04-25T09:58:38;59533.97;;;14.10;49.14
38054;BME280;23859;50.672;7.164;2023-04-25T10:01:07;59514.91;;;13.88;50.03
38054;BME280;23859;50.672;7.164;2023-04-25T10:03:36;59537.94;;;14.14;50.95
38054;BME280;23859;50.672;7.164;2023-04-25T10:06:09;59526.91;;;13.97;52.45
38054;BME280;23859;50.672;7.164;2023-04-25T10:08:38;59531.19;;;14.04;54.03
38054;BME280;23859;50.672;7.164;2023-04-25T10:11:06;59483.94;;;13.62;51.36
38054;BME280;23859;50.672;7.164;2023-04-25T10:13:35;59526.72;;;14.00;52.35
38054;BME280;23859;50.672;7.164;2023-04-25T10:16:03;59518.16;;;13.94;51.65
38054;BME280;23859;50.672;7.164;2023-04-25T10:18:30;59525.56;;;14.01;53.73
38054;BME280;23859;50.672;7.164;2023-04-25T10:20:58;59571.50;;;14.48;53.06
38054;BME280;23859;50.672;7.164;2023-04-25T10:23:25;59602.13;;;14.78;51.80
38054;BME280;23859;50.672;7.164;2023-04-25T10:25:52;59562.78;;;14.36;51.36
38054;BME280;23859;50.672;7.164;2023-04-25T10:28:19;59559.66;;;14.36;49.95
38054;BME280;23859;50.672;7.164;2023-04-25T10:31:04;59534.81;;;14.05;49.96
38054;BME280;23859;50.672;7.164;2023-04-25T10:33:34;59516.19;;;13.92;50.26
38054;BME280;23859;50.672;7.164;2023-04-25T10:36:14;59501.88;;;13.78;50.77
38054;BME280;23859;50.672;7.164;2023-04-25T10:38:44;59474.94;;;13.48;51.30
38054;BME280;23859;50.672;7.164;2023-04-25T10:41:11;59445.66;;;13.21;52.29
38054;BME280;23859;50.672;7.164;2023-04-25T10:43:43;59429.38;;;13.05;53.22
38054;BME280;23859;50.672;7.164;2023-04-25T10:46:19;59368.53;;;12.54;52.20
38054;BME280;23859;50.672;7.164;2023-04-25T10:48:52;59434.34;;;13.02;50.15
38054;BME280;23859;50.672;7.164;2023-04-25T10:51:24;59471.78;;;13.47;51.15
38054;BME280;23859;50.672;7.164;2023-04-25T10:53:59;59514.56;;;13.85;49.83
38054;BME280;23859;50.672;7.164;2023-04-25T10:56:27;59581.06;;;14.55;50.95
38054;BME280;23859;50.672;7.164;2023-04-25T11:01:43;59696.53;;;15.73;46.80
38054;BME280;23859;50.672;7.164;2023-04-25T11:04:22;59646.28;;;15.20;48.65
38054;BME280;23859;50.672;7.164;2023-04-25T11:07:13;59620.88;;;14.97;51.33
38054;BME280;23859;50.672;7.164;2023-04-25T11:09:45;59591.44;;;14.65;49.68
38054;BME280;23859;50.672;7.164;2023-04-25T11:12:11;59543.50;;;14.25;49.28
38054;BME280;23859;50.672;7.164;2023-04-25T11:14:38;59527.06;;;14.03;49.07
38054;BME280;23859;50.672;7.164;2023-04-25T11:17:04;59481.34;;;13.54;52.22
38054;BME280;23859;50.672;7.164;2023-04-25T11:19:31;59457.97;;;13.33;52.37
38054;BME280;23859;50.672;7.164;2023-04-25T11:22:01;59452.53;;;13.28;54.43
38054;BME280;23859;50.672;7.164;2023-04-25T11:24:32;59643.63;;;15.20;50.59
38054;BME280;23859;50.672;7.164;2023-04-25T11:27:00;59885.03;;;17.57;45.90
38054;BME280;23859;50.672;7.164;2023-04-25T11:29:28;60061.88;;;19.37;40.11
38054;BME280;23859;50.672;7.164;2023-04-25T11:31:55;60152.28;;;20.27;38.78
38054;BME280;23859;50.672;7.164;2023-04-25T11:34:24;60243.84;;;21.24;38.55
38054;BME280;23859;50.672;7.164;2023-04-25T11:36:51;60015.38;;;18.95;41.64
38054;BME280;23859;50.672;7.164;2023-04-25T11:39:19;59984.28;;;18.62;41.11
38054;BME280;23859;50.672;7.164;2023-04-25T11:41:45;59884.84;;;17.59;41.50
38054;BME280;23859;50.672;7.164;2023-04-25T11:44:12;59879.03;;;17.59;41.27
38054;BME280;23859;50.672;7.164;2023-04-25T11:46:41;59869.78;;;17.47;43.81
38054;BME280;23859;50.672;7.164;2023-04-25T11:49:07;59750.59;;;16.33;46.64
38054;BME280;23859;50.672;7.164;2023-04-25T11:51:44;59698.69;;;15.73;47.53
38054;BME280;23859;50.672;7.164;2023-04-25T11:54:11;59619.59;;;14.93;49.46
38054;BME280;23859;50.672;7.164;2023-04-25T11:56:44;59571.81;;;14.51;49.97
38054;BME280;23859;50.672;7.164;2023-04-25T11:59:12;59528.88;;;13.99;49.98
38054;BME280;23859;50.672;7.164;2023-04-25T12:01:40;59452.06;;;13.28;53.10
38054;BME280;23859;50.672;7.164;2023-04-25T12:04:14;59420.16;;;12.93;53.71
38054;BME280;23859;50.672;7.164;2023-04-25T12:06:41;59375.97;;;12.46;55.11
38054;BME280;23859;50.672;7.164;2023-04-25T12:09:10;59372.53;;;12.42;57.06
38054;BME280;23859;50.672;7.164;2023-04-25T12:11:47;59342.94;;;12.12;57.69
38054;BME280;23859;50.672;7.164;2023-04-25T12:14:22;59307.50;;;11.77;58.77
38054;BME280;23859;50.672;7.164;2023-04-25T12:16:50;59307.97;;;11.85;59.12
38054;BME280;23859;50.672;7.164;2023-04-25T12:19:19;59314.69;;;11.87;59.52
38054;BME280;23859;50.672;7.164;2023-04-25T12:21:46;59310.59;;;11.85;59.72
38054;BME280;23859;50.672;7.164;2023-04-25T12:24:22;59335.38;;;12.15;60.17
38054;BME280;23859;50.672;7.164;2023-04-25T12:29:26;59564.91;;;14.44;52.52
38054;BME280;23859;50.672;7.164;2023-04-25T12:31:53;59608.84;;;14.88;50.86
38054;BME280;23859;50.672;7.164;2023-04-25T12:34:20;59608.22;;;14.82;48.72
38054;BME280;23859;50.672;7.164;2023-04-25T12:36:47;59569.03;;;14.45;48.65
38054;BME280;23859;50.672;7.164;2023-04-25T12:39:21;59587.28;;;14.63;47.29
38054;BME280;23859;50.672;7.164;2023-04-25T12:41:48;59545.78;;;14.30;49.46
38054;BME280;23859;50.672;7.164;2023-04-25T12:44:14;59575.75;;;14.55;47.47
38054;BME280;23859;50.672;7.164;2023-04-25T12:46:41;59572.47;;;14.49;47.80
38054;BME280;23859;50.672;7.164;2023-04-25T12:49:08;59589.28;;;14.65;47.21
38054;BME280;23859;50.672;7.164;2023-04-25T12:51:35;59574.78;;;14.54;47.59
38054;BME280;23859;50.672;7.164;2023-04-25T12:54:02;59551.94;;;14.25;46.56
38054;BME280;23859;50.672;7.164;2023-04-25T12:56:28;59517.50;;;13.96;48.56
38054;BME280;23859;50.672;7.164;2023-04-25T12:58:55;59508.63;;;13.87;49.04
38054;BME280;23859;50.672;7.164;2023-04-25T13:01:21;59540.41;;;14.16;49.88
38054;BME280;23859;50.672;7.164;2023-04-25T13:03:47;59580.41;;;14.57;48.60
38054;BME280;23859;50.672;7.164;2023-04-25T13:06:15;59697.03;;;15.74;48.44
38054;BME280;23859;50.672;7.164;2023-04-25T13:08:41;59863.66;;;17.43;45.72